Time;durP1;ratioP1;P1;durP2;ratioP2;P2;SDS_P1;SDS_P2;PMS_P1;PMS_P2;Temp;Humidity;BMP_temperature;BMP_pressure;BME280_temperature;BME280_humidity;BME280_pressure;Samples;Min_cycle;Max_cycle;Signal;HPM_P1;HPM_P2
2023/07/10 00:02:12;;;;;;;10.63;10.32;;;24.20;99.90;;;;;;5012373;28;20228;-80
2023/07/10 00:04:42;;;;;;;10.80;10.50;;;24.20;99.90;;;;;;5010405;28;20231;-79
2023/07/10 00:07:10;;;;;;;10.60;10.30;;;24.20;99.90;;;;;;5013513;28;20304;-79
2023/07/10 00:09:39;;;;;;;10.80;10.50;;;24.10;99.90;;;;;;5013217;28;20240;-79
2023/07/10 00:12:18;;;;;;;10.73;10.43;;;24.10;99.90;;;;;;5014457;28;20225;-80
2023/07/10 00:14:46;;;;;;;11.00;10.70;;;24.00;99.90;;;;;;5013897;28;20229;-79
2023/07/10 00:17:16;;;;;;;10.90;10.60;;;24.00;99.90;;;;;;5010871;28;20256;-79
2023/07/10 00:19:46;;;;;;;10.90;10.60;;;23.90;99.90;;;;;;5005278;28;20237;-79
2023/07/10 00:22:18;;;;;;;11.02;10.73;;;23.90;99.90;;;;;;5004664;28;20237;-80
2023/07/10 00:24:46;;;;;;;10.90;10.60;;;23.90;99.90;;;;;;5004695;28;20211;-79
2023/07/10 00:27:15;;;;;;;10.85;10.55;;;23.90;99.90;;;;;;5081696;23;20240;-90
2023/07/10 00:29:54;;;;;;;10.98;10.68;;;23.80;99.90;;;;;;5005676;28;20221;-89
2023/07/10 00:32:24;;;;;;;11.00;10.70;;;23.80;99.90;;;;;;5005787;28;20225;-89
2023/07/10 00:37:40;;;;;;;10.90;10.60;;;23.80;99.90;;;;;;4985653;28;20248;-91
2023/07/10 00:40:22;;;;;;;10.85;10.55;;;23.70;99.90;;;;;;4986284;28;20238;-89
2023/07/10 00:45:45;;;;;;;10.77;10.48;;;23.70;99.90;;;;;;4990887;28;20217;-90
2023/07/10 00:57:33;;;;;;;10.90;10.60;;;23.30;99.90;;;;;;4986453;28;20241;-90
2023/07/10 01:00:23;;;;;;;10.90;10.60;;;23.30;99.90;;;;;;4988556;28;20265;-89
2023/07/10 01:02:52;;;;;;;10.90;10.60;;;23.20;99.90;;;;;;4979513;28;20248;-90
2023/07/10 01:05:22;;;;;;;10.90;10.60;;;23.20;99.90;;;;;;4986351;28;20233;-90
2023/07/10 01:10:47;;;;;;;10.90;10.60;;;23.10;99.90;;;;;;4994342;28;20209;-89
2023/07/10 01:13:17;;;;;;;10.73;10.43;;;23.00;99.90;;;;;;4994226;28;20268;-90
2023/07/10 01:15:48;;;;;;;10.98;10.68;;;23.00;99.90;;;;;;4986349;28;20237;-90
2023/07/10 01:18:20;;;;;;;10.98;10.68;;;23.00;99.90;;;;;;4987038;28;20276;-90
2023/07/10 01:21:23;;;;;;;10.93;10.63;;;23.00;99.90;;;;;;4985627;28;20233;-90
2023/07/10 01:24:07;;;;;;;10.77;10.48;;;23.00;99.90;;;;;;4985449;28;20233;-90
2023/07/10 01:26:45;;;;;;;10.90;10.60;;;23.00;99.90;;;;;;4985045;28;20234;-89
2023/07/10 01:29:26;;;;;;;10.85;10.55;;;22.90;99.90;;;;;;4986298;28;20264;-90
2023/07/10 01:32:01;;;;;;;11.00;10.70;;;22.90;99.90;;;;;;4993166;28;20276;-90
2023/07/10 01:34:48;;;;;;;10.95;10.65;;;22.70;99.90;;;;;;4992847;28;20233;-89
2023/07/10 01:40:08;;;;;;;10.93;10.63;;;22.60;99.90;;;;;;4998389;28;20278;-90
2023/07/10 01:42:38;;;;;;;10.98;10.68;;;22.60;99.90;;;;;;4999316;28;20216;-89
2023/07/10 01:50:40;;;;;;;10.90;10.60;;;22.50;99.90;;;;;;4988285;28;20185;-90
2023/07/10 01:53:16;;;;;;;11.10;10.80;;;22.50;99.90;;;;;;5000354;28;20226;-90
2023/07/10 01:55:47;;;;;;;10.98;10.68;;;22.50;99.90;;;;;;4999217;28;21147;-89
2023/07/10 01:58:15;;;;;;;10.80;10.50;;;22.40;99.90;;;;;;4993232;28;20269;-89
2023/07/10 02:00:44;;;;;;;10.85;10.55;;;22.40;99.90;;;;;;4994138;28;20209;-89
2023/07/10 02:03:14;;;;;;;10.80;10.50;;;22.40;99.90;;;;;;4991680;28;20312;-90
2023/07/10 02:05:44;;;;;;;10.77;10.48;;;22.40;99.90;;;;;;4987006;28;20297;-89
2023/07/10 02:08:22;;;;;;;10.57;10.27;;;22.30;99.90;;;;;;4986419;28;20216;-89
2023/07/10 02:10:53;;;;;;;10.70;10.40;;;22.30;99.90;;;;;;4984499;28;20220;-89
2023/07/10 02:13:21;;;;;;;10.55;10.25;;;22.30;99.90;;;;;;4984535;28;20236;-89
2023/07/10 02:15:50;;;;;;;10.63;10.32;;;22.20;99.90;;;;;;4983888;28;20233;-89
2023/07/10 02:18:19;;;;;;;10.50;10.20;;;22.20;99.90;;;;;;4984529;28;20249;-89
2023/07/10 02:20:50;;;;;;;10.50;10.20;;;22.10;99.90;;;;;;4984690;28;20233;-89
2023/07/10 02:23:28;;;;;;;10.50;10.20;;;22.10;99.90;;;;;;4984335;28;20236;-89
2023/07/10 02:25:58;;;;;;;11.10;10.80;;;22.00;99.90;;;;;;4984357;28;20237;-89
2023/07/10 02:28:28;;;;;;;10.68;10.38;;;22.00;99.90;;;;;;4987852;28;20285;-89
2023/07/10 02:30:57;;;;;;;10.90;10.60;;;21.90;99.90;;;;;;4987258;28;20230;-89
2023/07/10 02:33:26;;;;;;;10.63;10.32;;;21.90;99.90;;;;;;4987429;28;20237;-89
2023/07/10 02:35:56;;;;;;;10.35;10.05;;;21.80;99.90;;;;;;4987071;28;20237;-89
2023/07/10 02:38:34;;;;;;;10.48;10.18;;;21.80;99.90;;;;;;4987747;28;20241;-89
2023/07/10 02:41:03;;;;;;;10.50;10.20;;;21.80;99.90;;;;;;4989290;28;20243;-89
2023/07/10 02:43:32;;;;;;;10.50;10.20;;;21.80;99.90;;;;;;4989257;28;20233;-89
2023/07/10 02:46:02;;;;;;;10.60;10.30;;;21.80;99.90;;;;;;4988271;28;20316;-89
2023/07/10 02:48:32;;;;;;;10.70;10.40;;;21.80;99.90;;;;;;4987478;28;20233;-89
2023/07/10 02:51:00;;;;;;;10.60;10.30;;;21.80;99.90;;;;;;4987327;28;20237;-89
2023/07/10 02:53:39;;;;;;;10.55;10.25;;;21.80;99.90;;;;;;4987469;28;20296;-89
2023/07/10 02:56:09;;;;;;;10.60;10.30;;;21.70;99.90;;;;;;4991679;28;20228;-90
2023/07/10 02:58:38;;;;;;;10.70;10.40;;;21.70;99.90;;;;;;5001502;28;20269;-89
2023/07/10 03:01:07;;;;;;;10.65;10.35;;;21.60;99.90;;;;;;4986806;28;20226;-89
2023/07/10 03:03:43;;;;;;;10.95;10.65;;;21.70;99.90;;;;;;4987739;28;20229;-89
2023/07/10 03:06:16;;;;;;;11.00;10.70;;;21.60;99.90;;;;;;4986985;28;20288;-89
2023/07/10 03:08:48;;;;;;;11.02;10.73;;;21.70;99.90;;;;;;4987113;28;20281;-89
2023/07/10 03:14:02;;;;;;;11.10;10.80;;;21.70;99.90;;;;;;4987061;28;20280;-88
2023/07/10 03:16:30;;;;;;;11.00;10.70;;;21.70;99.90;;;;;;4986150;28;20253;-89
2023/07/10 03:18:59;;;;;;;10.85;10.55;;;21.70;99.90;;;;;;4986715;28;20225;-90
2023/07/10 03:21:29;;;;;;;11.30;11.00;;;21.60;99.90;;;;;;4986520;28;20238;-89
2023/07/10 03:24:07;;;;;;;11.57;11.18;;;21.40;99.90;;;;;;4987539;28;20245;-89
2023/07/10 03:26:38;;;;;;;11.23;10.93;;;21.50;99.90;;;;;;4988538;28;20275;-90
2023/07/10 03:29:08;;;;;;;10.90;10.60;;;21.50;99.90;;;;;;4988895;28;20288;-89
2023/07/10 03:31:36;;;;;;;11.15;10.85;;;21.50;99.90;;;;;;4987386;28;20226;-90
2023/07/10 03:34:05;;;;;;;10.82;10.52;;;21.40;99.90;;;;;;4987472;28;20308;-90
2023/07/10 03:36:34;;;;;;;10.95;10.65;;;21.40;99.90;;;;;;4988018;28;20237;-89
2023/07/10 03:39:13;;;;;;;10.95;10.65;;;21.40;99.90;;;;;;4992200;28;20238;-88
2023/07/10 03:41:43;;;;;;;10.90;10.60;;;21.50;99.90;;;;;;4987527;28;20225;-87
2023/07/10 03:44:12;;;;;;;10.90;10.60;;;21.40;99.90;;;;;;4988630;28;20246;-89
2023/07/10 03:46:41;;;;;;;10.90;10.60;;;21.40;99.90;;;;;;4987620;28;20233;-89
2023/07/10 03:49:11;;;;;;;10.63;10.32;;;21.30;99.90;;;;;;4986856;28;20257;-89
2023/07/10 03:51:40;;;;;;;10.90;10.60;;;21.20;99.90;;;;;;4986840;28;21038;-89
2023/07/10 03:54:13;;;;;;;10.80;10.50;;;21.10;99.90;;;;;;4986673;28;20240;-89
2023/07/10 03:56:51;;;;;;;10.90;10.60;;;21.20;99.90;;;;;;4987832;28;20234;-90
2023/07/10 03:59:22;;;;;;;11.00;10.70;;;21.20;99.90;;;;;;4987694;28;20249;-89
2023/07/10 04:04:34;;;;;;;10.60;10.30;;;21.30;99.90;;;;;;4984163;28;20248;-89
2023/07/10 04:07:04;;;;;;;10.90;10.60;;;21.40;99.90;;;;;;4995682;28;20248;-88
2023/07/10 04:09:41;;;;;;;10.80;10.50;;;21.40;99.90;;;;;;5000366;28;20218;-89
2023/07/10 04:12:11;;;;;;;10.90;10.60;;;21.40;99.90;;;;;;4987083;28;20305;-89
2023/07/10 04:14:41;;;;;;;10.70;10.40;;;21.30;99.90;;;;;;4986463;28;20225;-89
2023/07/10 04:17:14;;;;;;;10.80;10.50;;;21.30;99.90;;;;;;4986431;28;20249;-89
2023/07/10 04:19:42;;;;;;;10.60;10.30;;;21.30;99.90;;;;;;4986473;28;20233;-89
2023/07/10 04:22:10;;;;;;;10.80;10.50;;;21.30;99.90;;;;;;4986383;28;20241;-90
2023/07/10 04:27:27;;;;;;;11.10;10.80;;;21.50;99.90;;;;;;4966536;28;20237;-89
2023/07/10 04:29:56;;;;;;;11.13;10.82;;;21.50;99.90;;;;;;4966943;28;20242;-89
2023/07/10 04:32:25;;;;;;;10.70;10.40;;;21.60;99.90;;;;;;4966675;28;20379;-88
2023/07/10 04:34:55;;;;;;;10.85;10.55;;;21.60;99.90;;;;;;4966919;28;20700;-89
2023/07/10 04:37:24;;;;;;;10.60;10.30;;;21.70;99.90;;;;;;4967215;28;20293;-89
2023/07/10 04:40:03;;;;;;;10.50;10.20;;;21.80;99.90;;;;;;4966553;28;20227;-89
2023/07/10 04:42:32;;;;;;;10.50;10.20;;;21.80;99.90;;;;;;4967601;28;20284;-87
2023/07/10 04:45:02;;;;;;;10.63;10.32;;;21.80;99.90;;;;;;4969975;28;20245;-88
2023/07/10 04:47:31;;;;;;;10.40;10.10;;;21.80;99.90;;;;;;4970012;28;20245;-88
2023/07/10 04:50:00;;;;;;;10.70;10.40;;;21.80;99.90;;;;;;4969503;28;20254;-88
2023/07/10 04:52:30;;;;;;;10.45;10.15;;;21.80;99.90;;;;;;4969540;28;20282;-88
2023/07/10 04:55:08;;;;;;;10.80;10.50;;;21.80;99.90;;;;;;4969638;28;20262;-88
2023/07/10 04:57:40;;;;;;;10.90;10.60;;;21.80;99.90;;;;;;4969784;28;20250;-87
2023/07/10 05:00:09;;;;;;;11.20;10.90;;;21.80;99.90;;;;;;4970229;28;20249;-88
2023/07/10 05:02:37;;;;;;;10.80;10.50;;;21.90;99.90;;;;;;4978421;28;20236;-87
2023/07/10 05:05:05;;;;;;;10.93;10.63;;;21.90;99.90;;;;;;4988268;28;20210;-87
2023/07/10 05:07:35;;;;;;;11.18;10.88;;;22.10;99.90;;;;;;4995041;28;20233;-86
2023/07/10 05:13:18;;;;;;;11.00;10.70;;;22.40;99.90;;;;;;4988176;28;20316;-88
2023/07/10 05:15:47;;;;;;;10.90;10.60;;;22.60;99.90;;;;;;4989401;28;20233;-88
2023/07/10 05:18:17;;;;;;;11.20;10.90;;;22.70;99.90;;;;;;4988945;28;20233;-88
2023/07/10 05:20:47;;;;;;;11.63;11.23;;;22.90;99.90;;;;;;4989330;28;20257;-88
2023/07/10 05:23:16;;;;;;;11.32;11.02;;;23.10;99.90;;;;;;4972934;28;20226;-88
2023/07/10 05:26:02;;;;;;;11.68;11.27;;;23.20;99.90;;;;;;4988615;28;20301;-87
2023/07/10 05:28:32;;;;;;;11.55;11.18;;;23.30;99.90;;;;;;4989221;28;20244;-87
2023/07/10 05:31:01;;;;;;;11.20;10.90;;;23.30;99.90;;;;;;4998357;28;20229;-86
2023/07/10 05:33:31;;;;;;;11.32;11.02;;;23.30;99.90;;;;;;4992217;28;20229;-86
2023/07/10 05:36:01;;;;;;;11.30;11.00;;;23.30;99.90;;;;;;4999703;28;20238;-86
2023/07/10 05:38:31;;;;;;;11.00;10.70;;;23.30;99.90;;;;;;5000260;28;20245;-86
2023/07/10 05:43:46;;;;;;;11.30;11.00;;;23.30;99.90;;;;;;4993789;28;20240;-86
2023/07/10 05:46:17;;;;;;;11.30;11.00;;;23.30;99.90;;;;;;4978632;28;20237;-87
2023/07/10 05:48:45;;;;;;;10.80;10.50;;;23.40;99.90;;;;;;4987240;28;20233;-87
2023/07/10 05:51:15;;;;;;;10.88;10.57;;;23.40;99.90;;;;;;4987095;28;20237;-87
2023/07/10 05:53:45;;;;;;;10.82;10.52;;;23.50;99.90;;;;;;4987159;28;20233;-87
2023/07/10 05:56:17;;;;;;;10.80;10.50;;;23.60;99.90;;;;;;4986352;28;20299;-87
2023/07/10 05:58:44;;;;;;;11.07;10.77;;;23.80;99.90;;;;;;4988446;28;20237;-87
2023/07/10 06:01:13;;;;;;;11.00;10.70;;;23.90;99.90;;;;;;4988059;28;20229;-87
2023/07/10 06:03:42;;;;;;;11.15;10.85;;;24.00;99.90;;;;;;4988606;28;20727;-87
2023/07/10 06:06:11;;;;;;;11.20;10.90;;;24.20;99.90;;;;;;4987702;28;20234;-87
2023/07/10 06:08:41;;;;;;;11.07;10.77;;;24.20;99.90;;;;;;4991270;28;20237;-86
2023/07/10 06:11:21;;;;;;;11.15;10.85;;;24.40;99.90;;;;;;4999929;28;20224;-90
2023/07/10 06:27:40;;;;;;;11.07;10.77;;;25.40;99.90;;;;;;4495144;23;20785;-79
2023/07/10 06:30:09;;;;;;;11.30;11.00;;;25.40;99.90;;;;;;4988926;28;20244;-79
2023/07/10 06:32:36;;;;;;;10.80;10.50;;;25.60;99.90;;;;;;4998213;28;20233;-78
2023/07/10 06:35:05;;;;;;;10.52;10.23;;;25.80;99.90;;;;;;4998810;28;20236;-78
2023/07/10 06:37:33;;;;;;;10.80;10.50;;;25.80;99.90;;;;;;4998009;28;20232;-79
2023/07/10 06:40:10;;;;;;;10.65;10.35;;;26.00;99.90;;;;;;4994557;28;20244;-79
2023/07/10 06:42:42;;;;;;;10.50;10.20;;;26.10;99.90;;;;;;4987404;28;20249;-80
2023/07/10 06:45:12;;;;;;;10.57;10.27;;;26.20;99.90;;;;;;5001375;28;20239;-80
2023/07/10 06:47:43;;;;;;;10.50;10.20;;;26.30;99.90;;;;;;5001709;28;20291;-80
2023/07/10 06:50:13;;;;;;;10.73;10.43;;;26.40;99.90;;;;;;5000310;28;20233;-81
2023/07/10 06:52:52;;;;;;;10.70;10.40;;;26.60;99.90;;;;;;5002715;28;20228;-81
2023/07/10 06:55:20;;;;;;;10.93;10.63;;;26.70;99.90;;;;;;5002740;28;20225;-80
2023/07/10 06:57:50;;;;;;;10.82;10.52;;;26.80;99.90;;;;;;4994322;28;20276;-80
2023/07/10 07:03:04;;;;;;;10.70;10.40;;;26.90;99.90;;;;;;5012988;28;20225;-81
2023/07/10 07:05:31;;;;;;;10.70;10.40;;;27.00;99.90;;;;;;5015870;28;20264;-81
2023/07/10 07:07:59;;;;;;;10.88;10.57;;;27.10;99.90;;;;;;5004659;28;20232;-80
2023/07/10 07:10:26;;;;;;;10.88;10.57;;;27.20;99.90;;;;;;5005464;28;20233;-82
2023/07/10 07:12:55;;;;;;;11.00;10.70;;;27.30;99.90;;;;;;5005187;28;20227;-78
2023/07/10 07:15:22;;;;;;;11.07;10.77;;;27.40;99.90;;;;;;5007528;28;20224;-82
2023/07/10 07:17:50;;;;;;;11.00;10.70;;;27.30;99.90;;;;;;5003807;28;20236;-81
2023/07/10 07:20:18;;;;;;;10.50;10.20;;;27.40;99.90;;;;;;4997445;28;20229;-79
2023/07/10 07:22:45;;;;;;;10.48;10.18;;;27.50;99.90;;;;;;5008652;28;20225;-80
2023/07/10 07:25:13;;;;;;;10.63;10.32;;;27.50;99.90;;;;;;5005782;28;20235;-80
2023/07/10 07:27:40;;;;;;;10.57;10.27;;;27.50;99.90;;;;;;5005650;28;20251;-81
2023/07/10 07:30:12;;;;;;;10.80;10.50;;;27.80;99.90;;;;;;5003834;28;20237;-78
2023/07/10 07:32:40;;;;;;;10.68;10.38;;;27.90;99.90;;;;;;5003646;28;20240;-78
2023/07/10 07:35:08;;;;;;;10.75;10.45;;;27.90;99.90;;;;;;5001915;28;20241;-78
2023/07/10 07:37:36;;;;;;;11.15;10.85;;;27.90;99.90;;;;;;5003394;28;20236;-80
2023/07/10 07:40:06;;;;;;;11.27;10.98;;;27.90;99.90;;;;;;5016473;28;20332;-77
2023/07/10 07:42:33;;;;;;;11.23;10.93;;;28.00;99.90;;;;;;5018270;28;20252;-78
2023/07/10 07:45:02;;;;;;;11.35;11.05;;;28.20;99.90;;;;;;5017668;28;20284;-77
2023/07/10 07:47:32;;;;;;;11.30;11.00;;;28.40;99.90;;;;;;5016364;28;20244;-77
2023/07/10 07:49:59;;;;;;;11.48;11.18;;;28.40;99.90;;;;;;5005231;28;20251;-78
2023/07/10 07:52:27;;;;;;;11.10;10.80;;;28.50;99.90;;;;;;5003365;28;20247;-78
2023/07/10 07:54:54;;;;;;;11.20;10.90;;;28.70;99.90;;;;;;5002997;28;20233;-78
2023/07/10 07:57:23;;;;;;;11.25;10.95;;;28.90;99.90;;;;;;5003639;28;20240;-78
2023/07/10 07:59:51;;;;;;;11.10;10.80;;;28.80;99.90;;;;;;5002928;28;20232;-78
2023/07/10 08:02:18;;;;;;;10.85;10.55;;;28.70;99.90;;;;;;5003307;28;20252;-77
2023/07/10 08:04:47;;;;;;;10.95;10.65;;;28.70;99.90;;;;;;5005597;28;20271;-80
2023/07/10 08:07:15;;;;;;;11.05;10.75;;;28.70;99.90;;;;;;5004315;28;20243;-80
2023/07/10 08:09:42;;;;;;;11.20;10.90;;;28.80;99.90;;;;;;5004600;28;20237;-80
2023/07/10 08:12:11;;;;;;;10.90;10.60;;;28.80;99.90;;;;;;5005138;28;20240;-80
2023/07/10 08:14:40;;;;;;;10.93;10.63;;;28.70;99.90;;;;;;5003604;28;20243;-81
2023/07/10 08:17:08;;;;;;;10.75;10.45;;;28.70;99.90;;;;;;5006493;28;20974;-80
2023/07/10 08:19:35;;;;;;;10.60;10.30;;;28.70;99.90;;;;;;5004830;28;20229;-80
2023/07/10 08:22:04;;;;;;;10.65;10.35;;;28.80;99.90;;;;;;5003952;28;20272;-80
2023/07/10 08:24:32;;;;;;;10.73;10.43;;;29.00;99.90;;;;;;5003993;28;20260;-80
2023/07/10 08:27:00;;;;;;;10.65;10.35;;;29.00;99.90;;;;;;5003219;28;20252;-80
2023/07/10 08:29:29;;;;;;;10.88;10.57;;;29.20;99.90;;;;;;5005019;28;20308;-80
2023/07/10 08:31:59;;;;;;;11.10;10.80;;;29.40;99.90;;;;;;5004275;28;20257;-80
2023/07/10 08:34:29;;;;;;;10.35;10.05;;;29.50;99.90;;;;;;5003600;28;20237;-79
2023/07/10 08:36:58;;;;;;;10.60;10.30;;;29.40;99.90;;;;;;5004190;28;20243;-81
2023/07/10 08:39:27;;;;;;;10.50;10.20;;;29.40;99.90;;;;;;5004345;28;20239;-79
2023/07/10 08:41:59;;;;;;;10.68;10.38;;;29.40;99.90;;;;;;5004379;28;20240;-80
2023/07/10 08:44:32;;;;;;;10.15;9.85;;;29.40;99.90;;;;;;5004954;28;20311;-79
2023/07/10 08:47:07;;;;;;;10.60;10.30;;;29.40;99.90;;;;;;5004270;28;20247;-81
2023/07/10 08:49:40;;;;;;;10.50;10.20;;;29.40;99.90;;;;;;5003703;28;20355;-80
2023/07/10 08:52:11;;;;;;;10.77;10.48;;;29.40;99.90;;;;;;5004927;28;20288;-79
2023/07/10 08:54:42;;;;;;;10.90;10.60;;;29.40;99.90;;;;;;5004578;28;20217;-79
2023/07/10 08:57:20;;;;;;;11.05;10.75;;;29.40;99.90;;;;;;5004165;28;20243;-79
2023/07/10 08:59:56;;;;;;;11.15;10.85;;;29.20;99.90;;;;;;5003710;28;20696;-79
2023/07/10 09:02:42;;;;;;;11.30;11.00;;;29.00;99.90;;;;;;5005084;28;20242;-79
2023/07/10 09:05:15;;;;;;;11.88;11.48;;;29.00;99.90;;;;;;5001952;28;20280;-78
2023/07/10 09:07:46;;;;;;;11.63;11.32;;;29.10;99.90;;;;;;5004947;28;20268;-78
2023/07/10 09:10:21;;;;;;;11.48;11.18;;;29.00;99.90;;;;;;5004459;28;20312;-79
2023/07/10 09:12:51;;;;;;;11.30;11.00;;;29.20;99.90;;;;;;5004025;28;21156;-79
2023/07/10 09:15:25;;;;;;;11.40;11.10;;;29.40;99.90;;;;;;5003503;28;20267;-79
2023/07/10 09:18:01;;;;;;;11.23;10.93;;;29.40;99.90;;;;;;5003589;28;20299;-79
2023/07/10 09:20:29;;;;;;;11.55;11.25;;;29.50;99.90;;;;;;4996564;28;20257;-79
2023/07/10 09:23:00;;;;;;;11.65;11.30;;;29.70;99.90;;;;;;4991613;28;20245;-80
2023/07/10 09:25:29;;;;;;;11.60;11.30;;;29.70;99.90;;;;;;5003065;28;20239;-79
2023/07/10 09:27:57;;;;;;;11.55;11.25;;;29.60;99.90;;;;;;4987909;28;20248;-80
2023/07/10 09:30:51;;;;;;;11.60;11.30;;;29.50;99.90;;;;;;5004592;28;20308;-79
2023/07/10 09:33:20;;;;;;;11.57;11.27;;;29.50;99.90;;;;;;5003089;28;20232;-79
2023/07/10 09:35:49;;;;;;;11.25;10.95;;;29.80;99.90;;;;;;5002673;28;20237;-79
2023/07/10 09:38:20;;;;;;;11.45;11.15;;;30.10;99.90;;;;;;5000196;28;20237;-80
2023/07/10 09:40:50;;;;;;;11.50;11.20;;;30.20;99.90;;;;;;4991899;28;20233;-80
2023/07/10 09:43:20;;;;;;;10.98;10.68;;;30.50;99.90;;;;;;4987053;28;20243;-79
2023/07/10 09:45:51;;;;;;;11.27;10.98;;;30.50;99.90;;;;;;5003018;28;20239;-81
2023/07/10 09:48:26;;;;;;;11.23;10.93;;;30.90;99.90;;;;;;4987865;28;20253;-80
2023/07/10 09:50:55;;;;;;;11.20;10.90;;;31.30;99.90;;;;;;5000706;28;20228;-82
2023/07/10 09:53:31;;;;;;;11.40;11.10;;;31.60;99.90;;;;;;5004154;28;20259;-80
2023/07/10 09:56:01;;;;;;;11.20;10.90;;;31.60;99.90;;;;;;4995441;28;20235;-80
2023/07/10 09:58:29;;;;;;;11.10;10.80;;;31.60;99.90;;;;;;5006083;28;20237;-80
2023/07/10 10:01:01;;;;;;;11.38;11.07;;;31.50;99.90;;;;;;5015658;28;20251;-81
2023/07/10 10:03:41;;;;;;;11.52;11.23;;;31.30;99.90;;;;;;5014925;28;20243;-80
2023/07/10 10:06:22;;;;;;;11.20;10.90;;;31.40;99.90;;;;;;5006545;28;20289;-80
2023/07/10 10:08:51;;;;;;;11.48;11.15;;;31.50;99.90;;;;;;5006549;28;20232;-81
2023/07/10 10:11:34;;;;;;;11.38;11.07;;;31.60;99.90;;;;;;5004446;28;20235;-81
2023/07/10 10:14:06;;;;;;;11.10;10.80;;;31.50;99.90;;;;;;4995345;28;20236;-80
2023/07/10 10:16:38;;;;;;;11.30;11.00;;;31.30;99.90;;;;;;5003141;28;20307;-79
2023/07/10 10:19:12;;;;;;;11.30;11.00;;;31.30;99.90;;;;;;5003174;28;20934;-79
2023/07/10 10:21:41;;;;;;;11.15;10.85;;;31.00;99.90;;;;;;5002178;28;20232;-79
2023/07/10 10:24:12;;;;;;;11.20;10.90;;;30.90;99.90;;;;;;5002405;28;20260;-79
2023/07/10 10:27:05;;;;;;;11.30;11.00;;;31.10;99.90;;;;;;5004525;28;20292;-78
2023/07/10 10:30:11;;;;;;;11.30;11.00;;;31.30;99.90;;;;;;5006011;28;20232;-80
2023/07/10 10:32:50;;;;;;;11.35;11.05;;;31.60;99.90;;;;;;5002915;28;20293;-80
2023/07/10 10:35:27;;;;;;;11.50;11.20;;;31.60;99.90;;;;;;5002734;28;20239;-79
2023/07/10 10:38:21;;;;;;;11.18;10.88;;;31.40;99.90;;;;;;5002664;28;20231;-79
2023/07/10 10:40:55;;;;;;;11.05;10.75;;;31.50;99.90;;;;;;5002860;28;20240;-79
2023/07/10 10:43:46;;;;;;;11.02;10.73;;;32.00;99.90;;;;;;5002110;28;20236;-79
2023/07/10 10:46:32;;;;;;;11.00;10.70;;;32.30;99.90;;;;;;5002109;28;20280;-80
2023/07/10 10:49:30;;;;;;;10.70;10.40;;;32.20;99.90;;;;;;5005546;28;20293;-80
2023/07/10 10:52:19;;;;;;;10.60;10.30;;;32.10;99.90;;;;;;5007791;28;20241;-79
2023/07/10 10:55:00;;;;;;;10.50;10.20;;;32.00;99.90;;;;;;5006009;28;20227;-79
2023/07/10 10:57:41;;;;;;;10.70;10.40;;;31.40;99.90;;;;;;5008454;28;20243;-80
2023/07/10 11:00:30;;;;;;;10.80;10.50;;;31.60;99.90;;;;;;5004700;28;20229;-79
2023/07/10 11:03:15;;;;;;;11.10;10.80;;;31.60;99.90;;;;;;4999567;28;20271;-79
2023/07/10 11:05:47;;;;;;;11.63;11.27;;;31.50;99.90;;;;;;4993272;28;20240;-79
2023/07/10 11:08:20;;;;;;;11.63;11.30;;;31.30;99.90;;;;;;4985412;28;20341;-80
2023/07/10 11:10:49;;;;;;;11.75;11.35;;;31.30;99.90;;;;;;4985709;28;20224;-79
2023/07/10 11:13:27;;;;;;;11.40;11.10;;;31.50;99.90;;;;;;4985724;28;20233;-80
2023/07/10 11:15:57;;;;;;;11.38;11.07;;;31.70;99.90;;;;;;4985452;28;20347;-79
2023/07/10 11:18:25;;;;;;;11.65;11.30;;;31.80;99.90;;;;;;4985961;28;20247;-80
2023/07/10 11:20:56;;;;;;;11.35;11.05;;;31.50;99.90;;;;;;4986040;28;20256;-80
2023/07/10 11:23:35;;;;;;;11.30;11.00;;;31.50;99.90;;;;;;4985300;28;20248;-79
2023/07/10 11:26:08;;;;;;;11.60;11.30;;;31.60;99.90;;;;;;4985830;28;20233;-82
2023/07/10 11:32:36;;;;;;;11.55;11.25;;;31.70;99.90;;;;;;4982190;28;20213;-84
2023/07/10 11:49:54;;;;;;;11.52;11.23;;;32.10;99.90;;;;;;4840531;29;20230;-81
2023/07/10 11:53:24;;;;;;;11.05;10.75;;;32.10;99.90;;;;;;4912555;28;20245;-81
2023/07/10 11:56:01;;;;;;;11.27;10.98;;;32.10;99.90;;;;;;4990061;28;20332;-81
2023/07/10 11:58:38;;;;;;;11.45;11.15;;;32.40;99.90;;;;;;4996766;28;20219;-80
2023/07/10 12:01:22;;;;;;;11.48;11.18;;;32.70;99.90;;;;;;4989225;28;20311;-80
2023/07/10 12:03:56;;;;;;;11.20;10.90;;;32.70;99.90;;;;;;4990149;28;20331;-81
2023/07/10 12:06:39;;;;;;;11.20;10.90;;;32.80;99.90;;;;;;4997140;28;20281;-80
2023/07/10 12:09:08;;;;;;;11.18;10.88;;;32.30;99.90;;;;;;4999281;28;20206;-80
2023/07/10 12:14:30;;;;;;;11.15;10.85;;;32.40;99.90;;;;;;5014760;28;20217;-82
2023/07/10 12:17:27;;;;;;;10.98;10.68;;;32.70;99.90;;;;;;5021151;28;20236;-84
2023/07/10 12:20:22;;;;;;;10.38;10.07;;;33.00;99.90;;;;;;5020415;28;20201;-83
2023/07/10 12:26:15;;;;;;;10.88;10.57;;;32.10;99.90;;;;;;5018632;28;20241;-83
2023/07/10 12:32:38;;;;;;;11.10;10.80;;;31.00;99.90;;;;;;4992371;28;20209;-86
2023/07/10 12:39:34;;;;;;;;;;;;;;;;;;;;;
2023/07/10 12:49:58;;;;;;;10.48;10.18;;;32.60;99.90;;;;;;4996724;28;20243;-85
2023/07/10 12:52:54;;;;;;;10.70;10.40;;;33.10;99.90;;;;;;4999741;28;20498;-86
2023/07/10 12:55:59;;;;;;;10.90;10.60;;;33.70;99.90;;;;;;4934406;28;20237;-87
2023/07/10 12:58:27;;;;;;;10.50;10.20;;;34.00;99.90;;;;;;4863728;29;20231;-86
2023/07/10 13:08:53;;;;;;;10.43;10.13;;;33.30;99.90;;;;;;5005898;28;20233;-82
2023/07/10 13:25:14;;;;;;;10.52;10.23;;;32.20;99.90;;;;;;5004483;28;20227;-81
2023/07/10 13:27:44;;;;;;;10.60;10.30;;;31.90;99.90;;;;;;5004762;28;20252;-82
2023/07/10 13:30:28;;;;;;;10.35;10.05;;;31.60;99.90;;;;;;5005833;28;20255;-81
2023/07/10 13:33:30;;;;;;;10.70;10.40;;;31.80;99.90;;;;;;5005065;28;20228;-82
2023/07/10 13:42:17;;;;;;;10.60;10.30;;;31.90;99.90;;;;;;5004105;28;20234;-82
2023/07/10 13:44:45;;;;;;;10.35;10.05;;;32.40;99.90;;;;;;5004544;28;20220;-81
2023/07/10 13:47:32;;;;;;;10.57;10.27;;;33.20;99.90;;;;;;5004161;28;20233;-83
2023/07/10 13:50:01;;;;;;;10.40;10.10;;;33.50;99.90;;;;;;5003820;28;20284;-81
2023/07/10 13:52:31;;;;;;;10.40;10.10;;;33.90;99.90;;;;;;5004379;28;20331;-83
2023/07/10 13:55:18;;;;;;;10.60;10.30;;;33.40;99.90;;;;;;5005099;28;20240;-82
2023/07/10 13:57:57;;;;;;;10.38;10.07;;;32.90;99.90;;;;;;5004774;28;20228;-83
2023/07/10 14:00:25;;;;;;;10.60;10.30;;;32.90;99.90;;;;;;5004236;28;20233;-83
2023/07/10 14:02:57;;;;;;;10.75;10.45;;;33.40;99.90;;;;;;5003440;28;20271;-84
2023/07/10 14:05:30;;;;;;;10.73;10.43;;;34.20;99.90;;;;;;5003333;28;20291;-81
2023/07/10 14:07:58;;;;;;;10.70;10.40;;;34.80;99.90;;;;;;5003680;28;20233;-81
2023/07/10 14:10:27;;;;;;;10.70;10.40;;;34.50;99.90;;;;;;4988903;28;20237;-82
2023/07/10 14:12:54;;;;;;;10.52;10.23;;;34.30;99.90;;;;;;4983879;28;20266;-82
2023/07/10 14:15:24;;;;;;;10.77;10.48;;;34.00;99.90;;;;;;4984622;28;20855;-81
2023/07/10 14:17:52;;;;;;;10.60;10.30;;;33.50;99.90;;;;;;4984290;28;20237;-82
2023/07/10 14:20:22;;;;;;;10.70;10.40;;;33.50;99.90;;;;;;4984972;28;20237;-82
2023/07/10 14:22:50;;;;;;;10.60;10.30;;;33.80;99.90;;;;;;4987215;28;20255;-82
2023/07/10 14:25:22;;;;;;;10.88;10.57;;;33.80;99.90;;;;;;4986340;28;20253;-81
2023/07/10 14:27:51;;;;;;;10.70;10.40;;;34.00;99.90;;;;;;4984658;28;20329;-80
2023/07/10 14:30:22;;;;;;;10.77;10.48;;;34.50;99.90;;;;;;4984124;28;20268;-81
2023/07/10 14:32:50;;;;;;;10.65;10.35;;;34.50;99.90;;;;;;4986729;28;20285;-79
2023/07/10 14:35:20;;;;;;;10.68;10.38;;;34.70;99.90;;;;;;4998099;28;20225;-80
2023/07/10 14:37:48;;;;;;;10.50;10.20;;;34.60;99.90;;;;;;4998494;28;20257;-79
2023/07/10 14:40:23;;;;;;;10.80;10.50;;;34.80;99.90;;;;;;4999079;28;20213;-81
2023/07/10 14:42:53;;;;;;;10.57;10.27;;;35.20;99.90;;;;;;4998580;28;20231;-79
2023/07/10 14:45:21;;;;;;;10.75;10.45;;;35.00;99.90;;;;;;4989883;28;20338;-80
2023/07/10 14:47:49;;;;;;;10.63;10.32;;;35.10;99.90;;;;;;4986211;28;20232;-81
2023/07/10 14:50:20;;;;;;;10.70;10.40;;;35.10;99.90;;;;;;4985686;28;20229;-78
2023/07/10 14:52:49;;;;;;;10.70;10.40;;;35.30;99.90;;;;;;4986017;28;20284;-80
2023/07/10 14:55:20;;;;;;;10.85;10.55;;;35.30;99.90;;;;;;4984623;28;20253;-79
2023/07/10 14:57:47;;;;;;;11.00;10.70;;;35.60;99.90;;;;;;4987266;28;20244;-79
2023/07/10 15:00:24;;;;;;;11.00;10.70;;;35.60;99.90;;;;;;4982524;28;20252;-80
2023/07/10 15:02:52;;;;;;;11.20;10.90;;;35.70;99.90;;;;;;4982923;28;20284;-79